Time;durP1;ratioP1;P1;durP2;ratioP2;P2;SDS_P1;SDS_P2;PMS_P1;PMS_P2;Temp;Humidity;BMP_temperature;BMP_pressure;BME280_temperature;BME280_humidity;BME280_pressure;Samples;Min_cycle;Max_cycle;Signal;HPM_P1;HPM_P2
2021/12/08 00:01:17;;;;;;;;;;;20.80;59.80;;;;;;4951341;28;20354;-78
2021/12/08 00:03:43;;;;;;;;;;;20.80;62.30;;;;;;4969475;28;20339;-78
2021/12/08 00:06:08;;;;;;;;;;;20.80;64.70;;;;;;4983968;28;20003;-78
2021/12/08 00:08:34;;;;;;;;;;;20.80;64.10;;;;;;4984553;28;20000;-78
2021/12/08 00:13:32;;;;;;;;;;;20.80;65.00;;;;;;4983725;28;19942;-79
2021/12/08 00:15:59;;;;;;;;;;;20.90;65.90;;;;;;4964594;28;19913;-78
2021/12/08 00:18:27;;;;;;;;;;;20.90;66.20;;;;;;4972559;28;19909;-78
2021/12/08 00:20:55;;;;;;;;;;;20.80;63.50;;;;;;4980739;28;19960;-79
2021/12/08 00:23:22;;;;;;;;;;;20.70;60.00;;;;;;4974615;28;19949;-79
2021/12/08 00:25:48;;;;;;;;;;;20.60;55.30;;;;;;4956748;28;19957;-79
2021/12/08 00:28:14;;;;;;;;;;;20.50;54.90;;;;;;4958843;28;19914;-78
2021/12/08 00:30:43;;;;;;;;;;;20.30;53.70;;;;;;4983381;28;20012;-79
2021/12/08 00:33:10;;;;;;;;;;;20.20;50.00;;;;;;4983027;28;20017;-77
2021/12/08 00:35:36;;;;;;;;;;;20.20;52.30;;;;;;4982773;28;20012;-77
2021/12/08 00:38:02;;;;;;;;;;;20.20;53.20;;;;;;4965430;28;19975;-79
2021/12/08 00:40:29;;;;;;;;;;;20.20;53.70;;;;;;4982993;28;20519;-79
2021/12/08 00:42:55;;;;;;;;;;;20.30;53.00;;;;;;4950158;28;19964;-77
2021/12/08 00:45:21;;;;;;;;;;;20.30;52.90;;;;;;4950398;28;19909;-77
2021/12/08 00:47:48;;;;;;;;;;;20.30;52.90;;;;;;4966532;28;19913;-77
2021/12/08 00:50:15;;;;;;;;;;;20.30;51.90;;;;;;4949803;28;19933;-79
2021/12/08 00:52:41;;;;;;;;;;;20.30;52.30;;;;;;4982643;28;19917;-78
2021/12/08 00:55:08;;;;;;;;;;;20.40;51.90;;;;;;4964808;28;19913;-76
2021/12/08 00:57:34;;;;;;;;;;;20.40;51.90;;;;;;4939895;28;20017;-78
2021/12/08 01:00:03;;;;;;;;;;;20.40;52.20;;;;;;4976833;28;19910;-79
2021/12/08 01:02:28;;;;;;;;;;;20.50;52.20;;;;;;4978293;28;19914;-75
2021/12/08 01:04:56;;;;;;;;;;;20.40;52.30;;;;;;4963879;28;19917;-74
2021/12/08 01:07:29;;;;;;;;;;;20.30;49.60;;;;;;4963867;28;20401;-79
2021/12/08 01:09:55;;;;;;;;;;;19.80;40.20;;;;;;4979878;28;19910;-77
2021/12/08 01:12:21;;;;;;;;;;;19.60;40.90;;;;;;4982354;28;19964;-76
2021/12/08 01:14:46;;;;;;;;;;;19.60;43.00;;;;;;4982893;28;19914;-77
2021/12/08 01:17:14;;;;;;;;;;;19.70;44.70;;;;;;4982828;28;19918;-78
2021/12/08 01:19:39;;;;;;;;;;;19.90;45.00;;;;;;4982563;28;19918;-77
2021/12/08 01:22:05;;;;;;;;;;;19.90;45.80;;;;;;4982381;28;19918;-77
2021/12/08 01:24:31;;;;;;;;;;;20.00;46.50;;;;;;4982023;28;19909;-77
2021/12/08 01:26:57;;;;;;;;;;;20.10;47.20;;;;;;4984470;28;19916;-77
2021/12/08 01:29:23;;;;;;;;;;;20.10;47.30;;;;;;4982327;28;20438;-77
2021/12/08 01:31:49;;;;;;;;;;;20.20;47.60;;;;;;4982829;28;19993;-77
2021/12/08 01:34:14;;;;;;;;;;;20.20;47.80;;;;;;4982201;28;20370;-78
2021/12/08 01:36:40;;;;;;;;;;;20.20;48.00;;;;;;4981586;28;20008;-78
2021/12/08 01:39:06;;;;;;;;;;;20.20;48.30;;;;;;4982146;28;19914;-78
2021/12/08 01:41:33;;;;;;;;;;;20.30;48.60;;;;;;4982334;28;19909;-76
2021/12/08 01:46:43;;;;;;;;;;;20.30;49.00;;;;;;4973126;28;19906;-76
2021/12/08 01:49:09;;;;;;;;;;;20.30;49.30;;;;;;4973260;28;20287;-76
2021/12/08 01:51:35;;;;;;;;;;;20.30;48.80;;;;;;4956052;28;20378;-77
2021/12/08 01:54:02;;;;;;;;;;;20.30;49.00;;;;;;4976817;28;19917;-76
2021/12/08 01:56:29;;;;;;;;;;;20.30;49.30;;;;;;4977472;28;20053;-77
2021/12/08 01:58:55;;;;;;;;;;;20.30;49.20;;;;;;4977012;28;19941;-77
2021/12/08 02:01:22;;;;;;;;;;;20.30;49.30;;;;;;4977351;28;20444;-76
2021/12/08 02:03:48;;;;;;;;;;;20.40;49.60;;;;;;4977097;28;19957;-77
2021/12/08 02:06:15;;;;;;;;;;;20.30;49.70;;;;;;4976288;28;20028;-76
2021/12/08 02:08:41;;;;;;;;;;;20.30;49.50;;;;;;4958646;28;19917;-76
2021/12/08 02:11:07;;;;;;;;;;;20.30;49.50;;;;;;4976334;28;20402;-76
2021/12/08 02:13:38;;;;;;;;;;;20.30;49.70;;;;;;4996016;28;19909;-77
2021/12/08 02:16:08;;;;;;;;;;;20.30;49.80;;;;;;4978458;28;19928;-76
2021/12/08 02:18:34;;;;;;;;;;;20.40;50.00;;;;;;4996192;28;19910;-77
2021/12/08 02:21:01;;;;;;;;;;;20.30;50.00;;;;;;4996231;28;19964;-77
2021/12/08 02:23:26;;;;;;;;;;;20.30;50.00;;;;;;4978756;28;19920;-77
2021/12/08 02:25:53;;;;;;;;;;;20.30;50.20;;;;;;4995703;28;19910;-77
2021/12/08 02:28:18;;;;;;;;;;;20.30;50.20;;;;;;4978769;28;19956;-77
2021/12/08 02:30:53;;;;;;;;;;;20.30;50.30;;;;;;4996216;28;19917;-77
2021/12/08 02:49:38;;;;;;;;;;;20.30;50.90;;;;;;4996261;28;19917;-77
2021/12/08 02:52:04;;;;;;;;;;;20.40;51.80;;;;;;4978333;28;19928;-77
2021/12/08 02:54:34;;;;;;;;;;;20.40;50.80;;;;;;4995208;28;20012;-78
2021/12/08 02:57:00;;;;;;;;;;;20.40;51.10;;;;;;4995480;28;19932;-77
2021/12/08 02:59:26;;;;;;;;;;;20.30;51.10;;;;;;4995619;28;19910;-78
2021/12/08 03:01:51;;;;;;;;;;;20.30;51.00;;;;;;4995556;28;19916;-77
2021/12/08 03:04:17;;;;;;;;;;;20.40;51.30;;;;;;4995193;28;19909;-77
2021/12/08 03:06:42;;;;;;;;;;;20.30;51.30;;;;;;4995149;28;20382;-77
2021/12/08 03:09:08;;;;;;;;;;;20.30;51.40;;;;;;4995200;28;19928;-77
2021/12/08 03:11:34;;;;;;;;;;;20.30;51.50;;;;;;4978177;28;19992;-77
2021/12/08 03:14:05;;;;;;;;;;;20.30;51.20;;;;;;4995217;28;19964;-78
2021/12/08 03:16:32;;;;;;;;;;;20.30;51.50;;;;;;4995324;28;20354;-77
2021/12/08 03:18:58;;;;;;;;;;;20.30;51.70;;;;;;4995648;28;19945;-77
2021/12/08 03:21:29;;;;;;;;;;;20.30;51.70;;;;;;4977997;28;19921;-78
2021/12/08 03:24:11;;;;;;;;;;;20.30;51.80;;;;;;4995961;28;19909;-77
2021/12/08 03:26:46;;;;;;;;;;;20.30;51.60;;;;;;4994764;28;20381;-77
2021/12/08 03:29:35;;;;;;;;;;;20.30;51.50;;;;;;4977583;28;19909;-77
2021/12/08 03:32:10;;;;;;;;;;;20.30;51.80;;;;;;4994707;28;19914;-77
2021/12/08 03:34:38;;;;;;;;;;;20.30;51.80;;;;;;4977268;28;19913;-77
2021/12/08 03:37:05;;;;;;;;;;;20.30;51.60;;;;;;4977536;28;19913;-77
2021/12/08 03:39:32;;;;;;;;;;;20.30;51.80;;;;;;4994708;28;19916;-77
2021/12/08 03:41:58;;;;;;;;;;;20.30;51.80;;;;;;4994875;28;19914;-77
2021/12/08 03:44:23;;;;;;;;;;;20.30;52.00;;;;;;4994513;28;19913;-77
2021/12/08 03:46:51;;;;;;;;;;;20.30;51.90;;;;;;4994158;28;19909;-78
2021/12/08 03:49:18;;;;;;;;;;;20.30;52.10;;;;;;4977345;28;20569;-77
2021/12/08 03:51:44;;;;;;;;;;;20.30;51.90;;;;;;4977042;28;20301;-77
2021/12/08 03:54:10;;;;;;;;;;;20.30;51.90;;;;;;4994669;28;19910;-77
2021/12/08 03:56:36;;;;;;;;;;;20.30;52.00;;;;;;4994304;28;19909;-77
2021/12/08 03:59:03;;;;;;;;;;;20.30;52.00;;;;;;4977416;28;19910;-77
2021/12/08 04:01:28;;;;;;;;;;;20.30;52.10;;;;;;4995183;28;20020;-77
2021/12/08 04:04:00;;;;;;;;;;;20.30;52.00;;;;;;4994689;28;20386;-77
2021/12/08 04:06:30;;;;;;;;;;;20.30;51.90;;;;;;4994033;28;19910;-77
2021/12/08 04:08:57;;;;;;;;;;;20.30;51.90;;;;;;4994600;28;19909;-77
2021/12/08 04:11:23;;;;;;;;;;;20.30;51.80;;;;;;4994395;28;19910;-77
2021/12/08 04:13:51;;;;;;;;;;;20.30;52.10;;;;;;4994262;28;20009;-77
2021/12/08 04:16:20;;;;;;;;;;;20.40;52.00;;;;;;4993157;28;19925;-78
2021/12/08 04:18:45;;;;;;;;;;;20.30;52.00;;;;;;4976572;28;19917;-78
2021/12/08 04:21:11;;;;;;;;;;;20.30;52.00;;;;;;4993886;28;19914;-78
2021/12/08 04:23:38;;;;;;;;;;;20.30;52.10;;;;;;4993740;28;19909;-78
2021/12/08 04:26:07;;;;;;;;;;;20.30;52.10;;;;;;4976110;28;19940;-77
2021/12/08 04:28:33;;;;;;;;;;;20.30;52.20;;;;;;4993835;28;19910;-77
2021/12/08 04:31:02;;;;;;;;;;;20.30;52.30;;;;;;4993649;28;20274;-77
2021/12/08 04:33:28;;;;;;;;;;;20.30;52.20;;;;;;4976698;28;19917;-77
2021/12/08 04:35:54;;;;;;;;;;;20.30;52.30;;;;;;4975910;28;19917;-77
2021/12/08 04:38:25;;;;;;;;;;;20.30;52.30;;;;;;4993768;28;19909;-77
2021/12/08 04:41:03;;;;;;;;;;;20.30;52.30;;;;;;4993684;28;19960;-77
2021/12/08 04:43:38;;;;;;;;;;;20.30;52.30;;;;;;4993853;28;20456;-77
2021/12/08 04:46:17;;;;;;;;;;;20.30;52.40;;;;;;4992879;28;20362;-77
2021/12/08 04:51:36;;;;;;;;;;;20.30;52.40;;;;;;4993311;28;20426;-77
2021/12/08 05:05:16;;;;;;;;;;;20.30;52.60;;;;;;4992641;28;19995;-77
2021/12/08 05:07:56;;;;;;;;;;;20.30;52.50;;;;;;4993068;28;20426;-77
2021/12/08 05:10:26;;;;;;;;;;;20.30;52.50;;;;;;4993016;28;19925;-77
2021/12/08 05:12:52;;;;;;;;;;;20.30;52.50;;;;;;4975607;28;19973;-77
2021/12/08 05:15:21;;;;;;;;;;;20.30;52.50;;;;;;4992115;28;20008;-77
2021/12/08 05:17:56;;;;;;;;;;;20.30;52.50;;;;;;4959475;28;20378;-78
2021/12/08 05:20:21;;;;;;;;;;;20.30;52.60;;;;;;4992685;28;19910;-77
2021/12/08 05:22:51;;;;;;;;;;;20.30;52.60;;;;;;4959723;28;19993;-77
2021/12/08 05:25:18;;;;;;;;;;;20.30;52.50;;;;;;4992350;28;19910;-77
2021/12/08 05:27:46;;;;;;;;;;;20.30;52.60;;;;;;4992355;28;20024;-77
2021/12/08 05:30:44;;;;;;;;;;;20.30;52.60;;;;;;4975552;28;19910;-77
2021/12/08 05:33:11;;;;;;;;;;;20.30;52.50;;;;;;4970241;28;19909;-78
2021/12/08 05:35:37;;;;;;;;;;;20.30;52.50;;;;;;4992492;28;19920;-77
2021/12/08 05:38:03;;;;;;;;;;;20.30;52.50;;;;;;4974491;28;20003;-77
2021/12/08 05:40:37;;;;;;;;;;;20.30;52.60;;;;;;4953397;28;20002;-77
2021/12/08 05:43:03;;;;;;;;;;;20.30;52.60;;;;;;4936691;29;19911;-77
2021/12/08 05:45:29;;;;;;;;;;;20.30;52.60;;;;;;4968710;28;20442;-78
2021/12/08 05:47:55;;;;;;;;;;;20.30;52.60;;;;;;4953882;29;20005;-77
2021/12/08 05:50:30;;;;;;;;;;;20.30;52.70;;;;;;4953714;29;20302;-77
2021/12/08 05:52:56;;;;;;;;;;;20.30;52.60;;;;;;4936608;29;20397;-77
2021/12/08 05:55:22;;;;;;;;;;;20.30;52.60;;;;;;4968033;28;20008;-77
2021/12/08 05:57:48;;;;;;;;;;;20.30;52.70;;;;;;4968820;28;19918;-77
2021/12/08 06:00:19;;;;;;;;;;;20.30;52.70;;;;;;4954072;29;20009;-77
2021/12/08 06:02:45;;;;;;;;;;;20.30;52.70;;;;;;4953740;28;20418;-77
2021/12/08 06:05:11;;;;;;;;;;;20.30;52.60;;;;;;4953623;28;20004;-78
2021/12/08 06:07:36;;;;;;;;;;;20.30;52.60;;;;;;4953755;28;20378;-77
2021/12/08 06:10:06;;;;;;;;;;;20.30;52.60;;;;;;4968486;28;19910;-77
2021/12/08 06:12:32;;;;;;;;;;;20.30;52.60;;;;;;4954001;28;19910;-78
2021/12/08 06:14:57;;;;;;;;;;;20.30;52.60;;;;;;4953184;28;19914;-78
2021/12/08 06:17:25;;;;;;;;;;;20.30;52.60;;;;;;4968526;28;19914;-78
2021/12/08 06:19:52;;;;;;;;;;;20.30;52.70;;;;;;4953766;29;19914;-78
2021/12/08 06:22:18;;;;;;;;;;;20.30;52.70;;;;;;4953440;29;19916;-77
2021/12/08 06:24:44;;;;;;;;;;;20.30;52.70;;;;;;4968290;28;19921;-77
2021/12/08 06:27:10;;;;;;;;;;;20.30;52.70;;;;;;4968585;28;19910;-77
2021/12/08 06:29:36;;;;;;;;;;;20.30;52.70;;;;;;4953805;29;20295;-77
2021/12/08 06:32:03;;;;;;;;;;;20.30;52.60;;;;;;4936456;29;20260;-76
2021/12/08 06:34:30;;;;;;;;;;;20.30;52.60;;;;;;4953018;29;20033;-76
2021/12/08 06:37:00;;;;;;;;;;;20.30;52.60;;;;;;4968149;28;19910;-77
2021/12/08 06:39:29;;;;;;;;;;;20.30;52.70;;;;;;4956022;28;19914;-77
2021/12/08 06:41:59;;;;;;;;;;;20.30;52.60;;;;;;4939738;29;20349;-77
2021/12/08 06:44:26;;;;;;;;;;;20.30;52.60;;;;;;4957039;28;19922;-77
2021/12/08 06:46:53;;;;;;;;;;;20.30;52.70;;;;;;4956550;28;20490;-77
2021/12/08 06:49:19;;;;;;;;;;;20.30;52.60;;;;;;4956795;29;19910;-76
2021/12/08 06:51:48;;;;;;;;;;;20.30;52.60;;;;;;4939866;29;19936;-77
2021/12/08 06:54:16;;;;;;;;;;;20.30;52.60;;;;;;4939443;29;19921;-76
2021/12/08 06:56:46;;;;;;;;;;;20.30;52.60;;;;;;4971246;28;20001;-76
2021/12/08 06:59:15;;;;;;;;;;;20.30;52.70;;;;;;4956573;28;20390;-76
2021/12/08 07:01:48;;;;;;;;;;;20.30;52.70;;;;;;4971411;28;20410;-77
2021/12/08 07:07:00;;;;;;;;;;;20.30;52.70;;;;;;4956300;29;20298;-77
2021/12/08 07:09:45;;;;;;;;;;;20.30;52.70;;;;;;4956348;29;19911;-77
2021/12/08 07:12:14;;;;;;;;;;;20.30;52.80;;;;;;4956477;29;19911;-77
2021/12/08 07:14:42;;;;;;;;;;;20.30;52.80;;;;;;4955825;28;19918;-77
2021/12/08 07:17:13;;;;;;;;;;;20.30;52.80;;;;;;4956409;29;19957;-77
2021/12/08 07:19:46;;;;;;;;;;;20.30;52.70;;;;;;4971157;28;19910;-77
2021/12/08 07:22:15;;;;;;;;;;;20.30;52.70;;;;;;4956310;29;19910;-76
2021/12/08 07:24:42;;;;;;;;;;;20.30;52.70;;;;;;4955703;28;19917;-76
2021/12/08 07:27:10;;;;;;;;;;;20.30;52.70;;;;;;4939202;29;19918;-76
2021/12/08 07:29:37;;;;;;;;;;;20.30;52.70;;;;;;4955970;29;20375;-76
2021/12/08 07:32:05;;;;;;;;;;;20.30;52.70;;;;;;4956006;28;19918;-76
2021/12/08 07:34:33;;;;;;;;;;;20.30;52.70;;;;;;4955667;29;19961;-77
2021/12/08 07:37:00;;;;;;;;;;;20.30;52.70;;;;;;4955965;29;19910;-77
2021/12/08 07:39:28;;;;;;;;;;;20.30;52.70;;;;;;4956021;29;19910;-78
2021/12/08 07:41:57;;;;;;;;;;;20.30;52.70;;;;;;4956176;28;19997;-77
2021/12/08 07:44:23;;;;;;;;;;;20.30;52.80;;;;;;4955837;29;19980;-78
2021/12/08 07:46:55;;;;;;;;;;;20.30;52.70;;;;;;4954475;29;20311;-78
2021/12/08 07:49:24;;;;;;;;;;;20.30;52.70;;;;;;4969842;28;19917;-78
2021/12/08 07:51:52;;;;;;;;;;;20.30;52.80;;;;;;4955286;29;19917;-79
2021/12/08 07:54:19;;;;;;;;;;;20.30;52.80;;;;;;4955687;28;19933;-75
2021/12/08 07:56:47;;;;;;;;;;;20.30;52.80;;;;;;4955962;29;19930;-76
2021/12/08 07:59:15;;;;;;;;;;;20.30;52.80;;;;;;4955584;28;19911;-77
2021/12/08 08:01:42;;;;;;;;;;;20.30;52.80;;;;;;4955747;29;19910;-77
2021/12/08 08:04:10;;;;;;;;;;;20.30;52.80;;;;;;4955432;28;19911;-76
2021/12/08 08:06:38;;;;;;;;;;;20.30;52.80;;;;;;4970321;28;19942;-76
2021/12/08 08:09:06;;;;;;;;;;;20.30;52.80;;;;;;4955289;29;19949;-76
2021/12/08 08:11:35;;;;;;;;;;;20.30;52.80;;;;;;4955426;29;19910;-78
2021/12/08 08:14:00;;;;;;;;;;;20.30;52.70;;;;;;4938220;29;19916;-77
2021/12/08 08:16:29;;;;;;;;;;;20.30;52.60;;;;;;4954908;29;20005;-76
2021/12/08 08:19:01;;;;;;;;;;;20.30;52.70;;;;;;4955471;29;19938;-77
2021/12/08 08:21:29;;;;;;;;;;;20.40;52.90;;;;;;4955165;29;20501;-77
2021/12/08 08:23:56;;;;;;;;;;;20.40;56.00;;;;;;4938198;29;19966;-77
2021/12/08 08:26:23;;;;;;;;;;;20.40;56.80;;;;;;4954824;28;19914;-77
2021/12/08 08:28:51;;;;;;;;;;;20.40;57.90;;;;;;4955031;28;19932;-77
2021/12/08 08:31:19;;;;;;;;;;;20.40;58.40;;;;;;4955092;29;19921;-77
2021/12/08 08:33:45;;;;;;;;;;;20.40;57.80;;;;;;4938023;29;19910;-77
2021/12/08 08:36:13;;;;;;;;;;;20.40;56.80;;;;;;4954605;28;19914;-77
2021/12/08 08:38:44;;;;;;;;;;;20.50;56.70;;;;;;4954996;29;19910;-77
2021/12/08 08:41:19;;;;;;;;;;;20.40;57.50;;;;;;4954822;29;20030;-77
2021/12/08 08:43:45;;;;;;;;;;;20.50;57.10;;;;;;4954635;29;20409;-77
2021/12/08 08:46:13;;;;;;;;;;;20.40;56.00;;;;;;4954247;29;19910;-77
2021/12/08 08:48:41;;;;;;;;;;;20.40;55.60;;;;;;4954165;28;19914;-77
2021/12/08 08:51:15;;;;;;;;;;;20.40;55.10;;;;;;4982433;28;19943;-77
2021/12/08 08:53:42;;;;;;;;;;;20.40;54.10;;;;;;4976080;28;19910;-78
2021/12/08 08:56:08;;;;;;;;;;;20.40;53.90;;;;;;4975450;28;20334;-77
2021/12/08 08:58:35;;;;;;;;;;;20.40;53.80;;;;;;4960573;28;20011;-77
2021/12/08 09:01:15;;;;;;;;;;;20.40;53.90;;;;;;4953911;28;19949;-77
2021/12/08 09:03:57;;;;;;;;;;;20.40;53.90;;;;;;4954527;29;19914;-77
2021/12/08 09:06:26;;;;;;;;;;;20.40;54.00;;;;;;4954012;29;19984;-77
2021/12/08 09:08:51;;;;;;;;;;;20.50;54.00;;;;;;4954600;29;19993;-77
2021/12/08 09:11:17;;;;;;;;;;;20.40;54.10;;;;;;4954416;29;19941;-78
2021/12/08 09:13:45;;;;;;;;;;;20.50;54.10;;;;;;4953947;28;19911;-77
2021/12/08 09:16:15;;;;;;;;;;;20.50;54.00;;;;;;4976110;28;19914;-78
2021/12/08 09:18:47;;;;;;;;;;;20.50;53.90;;;;;;4992605;28;19932;-77
2021/12/08 09:21:18;;;;;;;;;;;20.50;53.80;;;;;;4992837;28;19916;-77
2021/12/08 09:24:06;;;;;;;;;;;20.50;53.90;;;;;;4975696;28;20303;-77
2021/12/08 09:26:33;;;;;;;;;;;20.50;53.90;;;;;;4992618;28;20016;-77
2021/12/08 09:29:01;;;;;;;;;;;20.50;54.30;;;;;;4992835;28;20389;-77
2021/12/08 09:31:29;;;;;;;;;;;20.50;55.00;;;;;;4958220;28;20298;-77
2021/12/08 09:34:07;;;;;;;;;;;20.60;54.80;;;;;;4959245;28;19910;-77
2021/12/08 09:36:35;;;;;;;;;;;20.60;56.00;;;;;;4992623;28;19913;-77
2021/12/08 09:39:07;;;;;;;;;;;20.70;56.60;;;;;;4992825;28;19916;-77
2021/12/08 09:41:45;;;;;;;;;;;20.80;56.60;;;;;;4992879;28;19909;-77
2021/12/08 09:44:13;;;;;;;;;;;20.90;57.40;;;;;;4992674;28;19909;-77
2021/12/08 09:46:41;;;;;;;;;;;21.00;56.90;;;;;;4992613;28;19910;-78
2021/12/08 09:49:07;;;;;;;;;;;21.00;56.60;;;;;;4992309;28;19916;-77
2021/12/08 09:51:33;;;;;;;;;;;21.10;57.60;;;;;;4974401;28;19929;-74
2021/12/08 09:53:59;;;;;;;;;;;21.10;58.00;;;;;;4992327;28;19964;-77
2021/12/08 09:56:29;;;;;;;;;;;21.10;58.20;;;;;;4973473;28;19914;-77
2021/12/08 09:58:56;;;;;;;;;;;21.00;55.90;;;;;;4954369;28;19958;-77
2021/12/08 10:01:24;;;;;;;;;;;21.00;53.70;;;;;;4948025;28;19920;-77
2021/12/08 10:03:52;;;;;;;;;;;21.00;53.50;;;;;;4980592;28;19910;-77
2021/12/08 10:06:20;;;;;;;;;;;21.10;54.00;;;;;;4954578;28;19957;-77
2021/12/08 10:08:46;;;;;;;;;;;21.10;54.50;;;;;;4954499;28;20382;-76
2021/12/08 10:11:12;;;;;;;;;;;21.10;54.10;;;;;;4971485;28;20306;-78
2021/12/08 10:13:38;;;;;;;;;;;21.20;54.10;;;;;;4984466;28;19913;-78
2021/12/08 10:16:04;;;;;;;;;;;21.20;53.70;;;;;;4974455;28;19921;-77
2021/12/08 10:18:31;;;;;;;;;;;21.20;53.40;;;;;;4975656;28;19925;-77
2021/12/08 10:20:57;;;;;;;;;;;21.20;53.50;;;;;;4942274;28;19916;-77
2021/12/08 10:23:23;;;;;;;;;;;21.20;53.60;;;;;;4975293;28;19917;-77
2021/12/08 10:25:57;;;;;;;;;;;21.20;53.20;;;;;;4975628;28;19910;-77
2021/12/08 10:28:29;;;;;;;;;;;21.20;53.00;;;;;;4958601;28;19949;-77
2021/12/08 10:31:03;;;;;;;;;;;21.20;52.90;;;;;;4975341;28;19918;-76
2021/12/08 10:36:33;;;;;;;;;;;21.20;52.80;;;;;;4992418;28;20500;-75
2021/12/08 10:39:02;;;;;;;;;;;21.20;52.80;;;;;;4992947;28;20028;-78
2021/12/08 10:41:41;;;;;;;;;;;21.20;52.90;;;;;;4975713;28;19909;-77
2021/12/08 10:44:07;;;;;;;;;;;21.20;52.90;;;;;;4975560;28;20366;-76
2021/12/08 10:46:37;;;;;;;;;;;21.20;52.90;;;;;;4992870;28;19961;-76
2021/12/08 10:54:45;;;;;;;;;;;21.20;53.10;;;;;;4984866;28;19924;-77
2021/12/08 10:57:20;;;;;;;;;;;21.20;53.20;;;;;;4956765;28;19914;-79
2021/12/08 10:59:56;;;;;;;;;;;21.20;53.30;;;;;;4940550;28;19991;-77
2021/12/08 11:02:36;;;;;;;;;;;21.20;53.30;;;;;;4975265;28;19917;-77
2021/12/08 11:05:02;;;;;;;;;;;21.20;53.30;;;;;;4942009;28;19914;-77
2021/12/08 11:07:28;;;;;;;;;;;21.20;53.40;;;;;;4957950;28;20294;-76
2021/12/08 11:09:53;;;;;;;;;;;21.20;53.50;;;;;;4975546;28;19921;-76
2021/12/08 11:12:20;;;;;;;;;;;21.20;53.50;;;;;;4957720;28;19921;-76
2021/12/08 11:14:47;;;;;;;;;;;21.20;53.50;;;;;;4974375;28;19921;-76
2021/12/08 11:17:26;;;;;;;;;;;21.20;53.60;;;;;;4974903;28;19937;-77
2021/12/08 11:20:12;;;;;;;;;;;21.20;53.50;;;;;;4954313;28;20282;-77
2021/12/08 11:22:37;;;;;;;;;;;21.20;53.50;;;;;;4957165;28;19960;-76
2021/12/08 11:25:04;;;;;;;;;;;21.20;53.50;;;;;;4973911;28;20192;-76
2021/12/08 11:27:33;;;;;;;;;;;21.20;53.50;;;;;;4974385;28;19914;-76
2021/12/08 11:30:10;;;;;;;;;;;21.20;53.50;;;;;;4974855;28;19910;-76
2021/12/08 11:32:35;;;;;;;;;;;21.20;53.50;;;;;;4938483;28;20007;-77
2021/12/08 11:35:02;;;;;;;;;;;21.20;53.50;;;;;;4956833;28;19979;-77
2021/12/08 11:37:32;;;;;;;;;;;21.20;54.20;;;;;;4974887;28;19921;-78
2021/12/08 11:40:01;;;;;;;;;;;21.30;54.30;;;;;;4975234;28;20367;-78
2021/12/08 11:42:32;;;;;;;;;;;21.30;54.90;;;;;;4975362;28;19914;-78
2021/12/08 11:45:10;;;;;;;;;;;21.40;55.20;;;;;;4975169;28;19910;-78
2021/12/08 11:47:36;;;;;;;;;;;21.40;54.70;;;;;;4975563;28;19949;-78
2021/12/08 11:50:12;;;;;;;;;;;21.40;55.00;;;;;;4975159;28;20028;-77
2021/12/08 11:52:38;;;;;;;;;;;21.30;54.80;;;;;;4975291;28;19910;-78
2021/12/08 11:55:09;;;;;;;;;;;21.40;56.10;;;;;;4957283;28;20329;-76
2021/12/08 11:57:40;;;;;;;;;;;21.40;56.50;;;;;;4945202;28;19910;-92
2021/12/08 12:00:15;;;;;;;;;;;21.00;46.10;;;;;;4951708;28;19943;-77
2021/12/08 12:02:46;;;;;;;;;;;20.00;39.90;;;;;;4977189;28;20359;-78
2021/12/08 12:05:14;;;;;;;;;;;20.10;48.70;;;;;;4949736;28;19961;-77
2021/12/08 12:07:40;;;;;;;;;;;20.40;48.60;;;;;;4958110;28;20405;-78
2021/12/08 12:10:09;;;;;;;;;;;20.50;46.30;;;;;;4990824;28;19953;-77
2021/12/08 12:12:37;;;;;;;;;;;20.60;45.20;;;;;;4994550;28;19956;-76
2021/12/08 12:15:06;;;;;;;;;;;20.70;46.60;;;;;;5006707;23;20910;-78
2021/12/08 12:17:32;;;;;;;;;;;20.70;45.60;;;;;;4940663;28;19918;-78
2021/12/08 12:20:06;;;;;;;;;;;20.80;46.10;;;;;;4956718;28;19917;-78
2021/12/08 12:22:53;;;;;;;;;;;20.80;45.80;;;;;;4974203;28;19920;-78
2021/12/08 12:25:24;;;;;;;;;;;20.90;45.80;;;;;;4973482;28;19937;-78
2021/12/08 12:27:59;;;;;;;;;;;21.00;47.70;;;;;;4956922;28;19957;-78
2021/12/08 12:30:30;;;;;;;;;;;21.00;47.00;;;;;;4956659;28;19917;-78
2021/12/08 12:32:55;;;;;;;;;;;21.00;47.20;;;;;;4957035;28;20005;-77
2021/12/08 12:35:23;;;;;;;;;;;21.00;46.90;;;;;;4956014;28;20366;-77
2021/12/08 12:37:50;;;;;;;;;;;21.00;46.60;;;;;;4973558;28;19914;-78
2021/12/08 12:40:17;;;;;;;;;;;21.00;46.60;;;;;;4956529;28;19910;-78
2021/12/08 12:42:43;;;;;;;;;;;21.10;46.70;;;;;;4973975;28;20399;-78
2021/12/08 12:45:11;;;;;;;;;;;21.10;46.80;;;;;;4973469;28;20413;-78
2021/12/08 12:47:37;;;;;;;;;;;21.10;46.90;;;;;;4973785;28;19954;-77
2021/12/08 12:50:11;;;;;;;;;;;21.10;47.10;;;;;;4973546;28;20156;-78
2021/12/08 12:52:38;;;;;;;;;;;21.10;47.20;;;;;;4974111;28;19910;-78
2021/12/08 12:55:15;;;;;;;;;;;21.10;47.40;;;;;;4972913;28;19921;-78
2021/12/08 12:57:59;;;;;;;;;;;21.10;47.60;;;;;;4973816;28;19956;-78
2021/12/08 13:00:26;;;;;;;;;;;21.10;47.70;;;;;;4973483;28;20439;-78
2021/12/08 13:02:52;;;;;;;;;;;21.10;47.80;;;;;;4973570;28;20263;-77
2021/12/08 13:05:18;;;;;;;;;;;21.10;47.90;;;;;;4973188;28;19917;-78
2021/12/08 13:07:58;;;;;;;;;;;21.10;48.00;;;;;;4956206;28;20371;-77
2021/12/08 13:10:32;;;;;;;;;;;21.10;48.30;;;;;;4971233;28;19921;-79
2021/12/08 13:13:08;;;;;;;;;;;21.20;49.50;;;;;;4955438;28;19916;-79
2021/12/08 13:15:34;;;;;;;;;;;21.20;48.80;;;;;;4955345;28;19914;-79
2021/12/08 13:18:07;;;;;;;;;;;21.20;48.80;;;;;;4956288;28;19933;-79
2021/12/08 13:20:35;;;;;;;;;;;21.20;49.10;;;;;;4972452;28;19918;-79
2021/12/08 13:23:02;;;;;;;;;;;21.20;49.20;;;;;;4979910;28;20374;-78
2021/12/08 13:25:41;;;;;;;;;;;21.30;49.40;;;;;;4956939;28;19910;-79
2021/12/08 13:28:12;;;;;;;;;;;21.30;49.50;;;;;;4972827;28;19910;-80
2021/12/08 13:30:43;;;;;;;;;;;21.20;49.50;;;;;;4973364;28;19910;-80
2021/12/08 13:33:26;;;;;;;;;;;21.30;49.70;;;;;;4940453;28;19910;-79
2021/12/08 13:35:53;;;;;;;;;;;21.30;49.60;;;;;;4972711;28;19945;-79
2021/12/08 13:38:19;;;;;;;;;;;21.30;49.60;;;;;;4955045;28;19910;-79
2021/12/08 13:40:49;;;;;;;;;;;21.30;49.90;;;;;;4955123;28;19953;-80
2021/12/08 13:43:32;;;;;;;;;;;21.30;50.00;;;;;;4969871;28;19964;-79
2021/12/08 13:45:58;;;;;;;;;;;21.30;50.00;;;;;;4971850;28;20413;-81
2021/12/08 13:48:24;;;;;;;;;;;21.30;50.00;;;;;;4941477;28;19910;-78
2021/12/08 13:50:50;;;;;;;;;;;21.30;50.00;;;;;;4975529;28;19914;-81
2021/12/08 13:53:16;;;;;;;;;;;21.30;50.10;;;;;;4958394;28;20492;-80
2021/12/08 13:55:50;;;;;;;;;;;21.30;50.20;;;;;;4942252;28;20692;-82
2021/12/08 13:58:22;;;;;;;;;;;21.30;50.20;;;;;;4958358;28;19921;-79
2021/12/08 14:00:51;;;;;;;;;;;21.30;50.20;;;;;;4942939;28;19910;-78
2021/12/08 14:03:24;;;;;;;;;;;21.30;50.30;;;;;;4958626;28;19910;-82
2021/12/08 14:05:51;;;;;;;;;;;21.30;50.70;;;;;;4958031;28;19910;-78
2021/12/08 14:08:17;;;;;;;;;;;21.30;50.40;;;;;;4987129;28;19914;-82
2021/12/08 14:10:44;;;;;;;;;;;21.30;50.40;;;;;;4975339;28;19959;-78
2021/12/08 14:13:11;;;;;;;;;;;21.30;50.50;;;;;;4983993;28;20008;-78
2021/12/08 14:15:48;;;;;;;;;;;21.30;50.60;;;;;;4974950;28;19918;-79
2021/12/08 14:18:19;;;;;;;;;;;21.30;50.60;;;;;;4978199;28;19913;-80
2021/12/08 14:20:46;;;;;;;;;;;21.30;50.60;;;;;;4942749;28;19910;-81
2021/12/08 14:23:12;;;;;;;;;;;21.30;50.70;;;;;;4958713;28;19918;-81
2021/12/08 14:25:43;;;;;;;;;;;21.30;50.70;;;;;;4941668;28;20263;-81
2021/12/08 14:28:31;;;;;;;;;;;21.30;50.80;;;;;;4975677;28;20363;-80
2021/12/08 14:30:57;;;;;;;;;;;21.30;50.80;;;;;;4958440;28;19972;-81
2021/12/08 14:33:23;;;;;;;;;;;21.30;50.80;;;;;;4992579;28;20041;-81
2021/12/08 14:35:56;;;;;;;;;;;21.30;50.70;;;;;;4975614;28;19921;-81
2021/12/08 14:38:22;;;;;;;;;;;21.30;50.70;;;;;;4978329;28;19910;-80
2021/12/08 14:40:48;;;;;;;;;;;21.30;50.70;;;;;;4947938;28;19921;-80
2021/12/08 14:43:25;;;;;;;;;;;21.40;50.80;;;;;;4975928;28;20347;-81
2021/12/08 14:45:51;;;;;;;;;;;21.40;50.70;;;;;;4974470;28;19910;-82
2021/12/08 14:48:17;;;;;;;;;;;21.40;51.10;;;;;;4941572;28;20522;-82
2021/12/08 14:50:43;;;;;;;;;;;21.40;52.20;;;;;;4959035;28;19965;-82
2021/12/08 14:53:13;;;;;;;;;;;21.40;52.00;;;;;;4958375;28;20044;-81
2021/12/08 14:55:39;;;;;;;;;;;21.50;51.40;;;;;;4942484;28;19914;-82
2021/12/08 14:58:04;;;;;;;;;;;21.40;51.30;;;;;;4958628;28;20008;-82
2021/12/08 15:00:32;;;;;;;;;;;21.40;51.20;;;;;;4956130;28;19947;-81
2021/12/08 15:03:04;;;;;;;;;;;21.40;51.20;;;;;;4958066;28;19918;-80
2021/12/08 15:05:30;;;;;;;;;;;21.40;51.30;;;;;;4958005;28;19918;-81
2021/12/08 15:08:05;;;;;;;;;;;21.40;51.60;;;;;;4958507;28;20104;-80
2021/12/08 15:10:30;;;;;;;;;;;21.40;51.80;;;;;;4942391;28;19976;-80
2021/12/08 15:13:16;;;;;;;;;;;21.40;51.70;;;;;;4942800;28;20248;-80